الصفحة الرئيسية
METAR-TAF:

METAR-TAF

مطار :

مطار الأهواز الدولي

الأحواز, إيران

دائرة عرض: 31-20N, خط طول: 048-40E, ارتفاع: 20 متر

مراقبة الطقس الحالي

تاريخ ووقت الإصدار 41 دقيقة قبل الساعة 03:00UTC
رياح هادئة
درجة الحرارة 33°درجة مئوية
الرطوبة 28%
ضغط 999 hPa
الرؤية 10 كم أو أكثر
الغيوم لا تقل 1500 م ولا وجود لمزنة ركامية السحاب الأسود

METAR: OIAW 190300Z 00000KT CAVOK 33/12 Q0999

زمن: 08:11 (03:41 UTC)

توقعات

تاريخ ووقت الإصدار 4ساعات و 41 دقيقة قبل الساعة 23:00UTC
التوقعات صالحة من19 الساعة 00 UTC إلى 20 الساعة 06 UTC
ريح 7 عقدة من الشمال الغربي
الرؤية: 8000 متر

TAF: OIAW 182300Z 1900/2006 31007KT 8000 NSC

أرصاد الطقس والتوقعات من أكثر من 4000 مطار (تقارير الطقس للمطار METAR والتنبؤ بالطقس بالمطارTAF).

المحطات المتاحة هي النقط الصفراء والحمراء على الخريطة.

حرك المؤشر فوق النقطة لمعرفة اسم المحطة.

ثم انقر لمعرفة أرصاد وتوقعات الطقس.

لتغيير الخارطة: اضغط على الأزرار الخضراء مع رمز الصليب الأسود للتكبير. على الزر الأخضر مع شرطة للتصغير، أو على الأسهم الخضراء للخرائط المجاورة.


METAR-TAF: